createdAt,value
2023-05-12T00:00:29.326Z,52.13
2023-05-12T00:03:11.845Z,52.79
2023-05-12T00:05:39.976Z,52.30
2023-05-12T00:08:07.992Z,52.24
2023-05-12T00:10:35.890Z,53.03
2023-05-12T00:13:03.836Z,52.36
2023-05-12T00:15:32.501Z,52.90
2023-05-12T00:18:00.891Z,51.98
2023-05-12T00:20:28.868Z,53.26
2023-05-12T00:22:56.910Z,52.93
2023-05-12T00:25:24.834Z,52.38
2023-05-12T00:27:52.784Z,52.70
2023-05-12T00:30:21.551Z,52.47
2023-05-12T00:32:49.842Z,52.68
2023-05-12T00:35:17.799Z,52.43
2023-05-12T00:37:45.779Z,51.97
2023-05-12T00:40:14.449Z,53.02
2023-05-12T00:42:42.380Z,52.01
2023-05-12T00:45:11.094Z,51.93
2023-05-12T00:47:39.705Z,51.94
2023-05-12T00:50:08.587Z,53.95
2023-05-12T00:52:36.826Z,55.22
2023-05-12T00:55:05.453Z,54.49
2023-05-12T00:57:33.562Z,54.40
2023-05-12T01:00:01.839Z,54.75
2023-05-12T01:02:30.603Z,55.06
2023-05-12T01:04:59.117Z,53.84
2023-05-12T01:07:27.068Z,54.65
2023-05-12T01:09:56.554Z,53.60
2023-05-12T01:12:25.879Z,53.98
2023-05-12T01:14:55.138Z,54.16
2023-05-12T01:17:33.454Z,54.55
2023-05-12T01:20:03.007Z,55.07
2023-05-12T01:22:31.699Z,54.46
2023-05-12T01:25:04.350Z,54.15
2023-05-12T01:27:32.805Z,54.38
2023-05-12T01:30:01.722Z,55.31
2023-05-12T01:32:32.118Z,56.05
2023-05-12T01:35:01.138Z,55.48
2023-05-12T01:37:30.820Z,56.22
2023-05-12T01:39:59.739Z,55.88
2023-05-12T01:42:28.111Z,57.95
2023-05-12T01:44:56.171Z,58.93
2023-05-12T01:47:24.611Z,57.17
2023-05-12T01:50:12.769Z,58.16
2023-05-12T01:52:41.117Z,58.32
2023-05-12T01:55:13.888Z,58.34
2023-05-12T01:57:53.953Z,58.28
2023-05-12T02:00:22.688Z,57.02
2023-05-12T02:02:51.371Z,58.25
2023-05-12T02:05:19.384Z,58.64
2023-05-12T02:07:49.488Z,59.19
2023-05-12T02:10:18.402Z,58.49
2023-05-12T02:12:46.998Z,58.71
2023-05-12T02:15:15.268Z,58.13
2023-05-12T02:17:45.802Z,57.81
2023-05-12T02:20:14.075Z,58.70
2023-05-12T02:22:44.198Z,59.05
2023-05-12T02:25:12.262Z,58.41
2023-05-12T02:27:40.266Z,57.36
2023-05-12T02:30:09.234Z,58.13
2023-05-12T02:32:37.601Z,57.85
2023-05-12T02:35:07.641Z,57.14
2023-05-12T02:37:36.327Z,57.09
2023-05-12T02:40:04.858Z,56.91
2023-05-12T02:42:35.722Z,58.71
2023-05-12T02:45:04.221Z,58.04
2023-05-12T02:47:33.283Z,57.61
2023-05-12T02:50:01.626Z,56.95
2023-05-12T02:52:29.617Z,57.65
2023-05-12T02:54:57.619Z,57.30
2023-05-12T02:57:27.642Z,57.37
2023-05-12T02:59:56.042Z,56.63
2023-05-12T03:02:24.161Z,57.97
2023-05-12T03:04:52.243Z,56.68
2023-05-12T03:07:20.319Z,57.20
2023-05-12T03:09:48.433Z,58.10
2023-05-12T03:12:16.661Z,56.81
2023-05-12T03:14:44.967Z,57.50
2023-05-12T03:17:13.007Z,56.59
2023-05-12T03:19:41.848Z,56.67
2023-05-12T03:22:10.048Z,56.51
2023-05-12T03:24:37.988Z,56.27
2023-05-12T03:27:06.120Z,56.12
2023-05-12T03:29:34.135Z,55.68
2023-05-12T03:32:02.165Z,55.31
2023-05-12T03:34:30.431Z,55.12
2023-05-12T03:36:59.371Z,55.17
2023-05-12T03:39:27.329Z,55.20
2023-05-12T03:41:56.218Z,54.85
2023-05-12T03:44:24.173Z,55.02
2023-05-12T03:46:52.345Z,54.83
2023-05-12T03:49:21.817Z,54.62
2023-05-12T03:51:50.149Z,54.46
2023-05-12T03:54:20.054Z,54.48
2023-05-12T03:56:47.950Z,54.30
2023-05-12T03:59:16.335Z,54.20
2023-05-12T04:01:44.452Z,53.97
2023-05-12T04:04:12.634Z,53.98
2023-05-12T04:06:40.741Z,54.00
2023-05-12T04:09:08.819Z,53.96
2023-05-12T04:11:38.103Z,53.78
2023-05-12T04:14:06.082Z,53.80
2023-05-12T04:16:35.643Z,53.65
2023-05-12T04:19:03.834Z,53.62
2023-05-12T04:21:33.578Z,53.58
2023-05-12T04:24:01.567Z,53.47
2023-05-12T04:26:32.474Z,53.37
2023-05-12T04:29:00.678Z,53.16
2023-05-12T04:31:28.724Z,53.15
2023-05-12T04:33:56.848Z,52.98
2023-05-12T04:36:26.102Z,52.89
2023-05-12T04:38:55.983Z,52.82
2023-05-12T04:41:23.958Z,52.53
2023-05-12T04:46:23.379Z,52.24
2023-05-12T04:48:51.478Z,52.04
2023-05-12T04:51:19.391Z,51.79
2023-05-12T04:53:47.428Z,50.06
2023-05-12T04:56:15.549Z,45.94
2023-05-12T04:58:43.776Z,44.17
2023-05-12T05:01:12.580Z,44.87
2023-05-12T05:03:41.035Z,39.37
2023-05-12T05:06:09.312Z,38.98
2023-05-12T05:08:37.363Z,38.51
2023-05-12T05:11:06.419Z,39.17
2023-05-12T05:13:34.380Z,37.23
2023-05-12T05:16:02.630Z,35.99
2023-05-12T05:18:31.582Z,36.42
2023-05-12T05:20:59.675Z,35.30
2023-05-12T05:23:28.341Z,33.30
2023-05-12T05:25:56.836Z,32.63
2023-05-12T05:28:24.967Z,32.42
2023-05-12T05:30:52.932Z,33.57
2023-05-12T05:33:21.428Z,33.10
2023-05-12T05:35:49.517Z,33.22
2023-05-12T05:38:17.641Z,33.40
2023-05-12T05:40:52.982Z,32.16
2023-05-12T05:43:25.864Z,32.37
2023-05-12T05:45:56.220Z,31.85
2023-05-12T05:48:25.131Z,31.95
2023-05-12T05:50:53.585Z,31.80
2023-05-12T05:53:23.064Z,31.68
2023-05-12T05:55:51.540Z,31.41
2023-05-12T05:58:19.536Z,31.26
2023-05-12T06:00:48.308Z,30.73
2023-05-12T06:03:16.906Z,31.51
2023-05-12T06:05:45.848Z,31.32
2023-05-12T06:08:13.882Z,31.23
2023-05-12T06:10:42.280Z,30.62
2023-05-12T06:13:10.398Z,30.78
2023-05-12T06:15:38.925Z,30.57
2023-05-12T06:18:07.025Z,30.80
2023-05-12T06:20:35.109Z,30.97
2023-05-12T06:23:03.201Z,31.27
2023-05-12T06:25:33.344Z,32.30
2023-05-12T06:28:02.224Z,32.17
2023-05-12T06:30:30.166Z,31.53
2023-05-12T06:32:58.179Z,31.08
2023-05-12T06:35:26.365Z,30.85
2023-05-12T06:37:54.331Z,30.86
2023-05-12T06:40:22.429Z,31.44
2023-05-12T06:42:50.485Z,31.57
2023-05-12T06:45:21.719Z,31.53
2023-05-12T06:47:50.471Z,31.29
2023-05-12T06:50:19.676Z,31.00
2023-05-12T06:52:51.273Z,31.05
2023-05-12T06:55:21.172Z,30.86
2023-05-12T06:57:51.830Z,30.78
2023-05-12T07:00:20.170Z,30.75
2023-05-12T07:02:48.133Z,31.06
2023-05-12T07:05:16.218Z,31.38
2023-05-12T07:07:44.997Z,31.77
2023-05-12T07:10:13.034Z,31.29
2023-05-12T07:12:40.960Z,31.07
2023-05-12T07:15:09.825Z,31.19
2023-05-12T07:17:37.891Z,30.84
2023-05-12T07:20:07.264Z,31.32
2023-05-12T07:22:37.980Z,31.08
2023-05-12T07:25:08.132Z,30.83
2023-05-12T07:27:36.579Z,31.00
2023-05-12T07:30:06.656Z,31.03
2023-05-12T07:32:34.861Z,31.07
2023-05-12T07:35:03.900Z,31.00
2023-05-12T07:37:32.351Z,31.62
2023-05-12T07:40:00.299Z,31.29
2023-05-12T07:42:28.262Z,31.17
2023-05-12T07:44:56.331Z,30.76
2023-05-12T07:47:24.639Z,30.34
2023-05-12T07:49:52.684Z,30.70
2023-05-12T07:52:21.165Z,30.56
2023-05-12T07:54:49.211Z,30.90
2023-05-12T07:57:17.158Z,30.47
2023-05-12T07:59:45.427Z,30.62
2023-05-12T08:02:13.460Z,30.53
2023-05-12T08:04:43.166Z,30.16
2023-05-12T08:07:12.567Z,30.67
2023-05-12T08:09:40.584Z,30.20
2023-05-12T08:12:08.773Z,29.71
2023-05-12T08:14:37.295Z,29.41
2023-05-12T08:17:05.295Z,28.91
2023-05-12T08:19:33.481Z,29.08
2023-05-12T08:22:02.943Z,28.52
2023-05-12T08:24:30.885Z,27.89
2023-05-12T08:26:58.903Z,28.03
2023-05-12T08:29:29.112Z,27.74
2023-05-12T08:31:58.191Z,27.07
2023-05-12T08:34:26.179Z,24.86
2023-05-12T08:36:54.246Z,25.67
2023-05-12T08:39:22.366Z,26.31
2023-05-12T08:41:56.200Z,26.63
2023-05-12T08:44:24.210Z,26.73
2023-05-12T08:46:52.870Z,24.57
2023-05-12T08:49:21.131Z,24.57
2023-05-12T08:51:57.213Z,24.48
2023-05-12T08:54:27.595Z,24.74
2023-05-12T08:59:27.557Z,24.12
2023-05-12T09:01:56.118Z,23.84
2023-05-12T09:04:24.265Z,24.38
2023-05-12T09:06:54.946Z,24.02
2023-05-12T09:23:18.148Z,23.51
2023-05-12T09:25:47.983Z,23.02
2023-05-12T09:28:16.249Z,23.95
2023-05-12T09:30:44.180Z,23.50
2023-05-12T09:33:13.168Z,23.58
2023-05-12T09:35:45.861Z,24.16
2023-05-12T09:38:14.388Z,23.33
2023-05-12T09:40:43.557Z,23.72
2023-05-12T09:43:15.123Z,24.16
2023-05-12T09:45:44.422Z,23.78
2023-05-12T09:48:14.041Z,23.49
2023-05-12T09:50:51.313Z,23.51
2023-05-12T09:53:20.534Z,23.64
2023-05-12T09:55:48.829Z,24.09
2023-05-12T09:58:18.602Z,24.01
2023-05-12T10:03:18.685Z,23.74
2023-05-12T10:05:50.078Z,23.50
2023-05-12T10:08:22.345Z,23.89
2023-05-12T10:10:52.365Z,23.98
2023-05-12T10:13:20.344Z,24.31
2023-05-12T10:15:48.787Z,23.78
2023-05-12T10:18:17.561Z,23.66
2023-05-12T10:20:46.291Z,23.46
2023-05-12T10:23:14.883Z,23.32
2023-05-12T10:25:43.961Z,22.92
2023-05-12T10:28:12.040Z,22.25
2023-05-12T10:30:40.410Z,22.69
2023-05-12T10:33:10.236Z,22.08
2023-05-12T10:35:39.635Z,22.24
2023-05-12T10:38:09.037Z,22.30
2023-05-12T10:40:38.774Z,22.54
2023-05-12T10:43:06.718Z,22.51
2023-05-12T10:45:37.672Z,21.63
2023-05-12T10:48:07.184Z,21.74
2023-05-12T10:50:35.243Z,22.26
2023-05-12T10:53:03.301Z,22.70
2023-05-12T10:55:36.006Z,22.41
2023-05-12T10:58:11.984Z,22.34
2023-05-12T11:00:45.810Z,22.07
2023-05-12T11:03:16.786Z,21.82
2023-05-12T11:05:46.332Z,22.33
2023-05-12T11:08:16.639Z,22.69
2023-05-12T11:10:47.090Z,22.38
2023-05-12T11:13:15.701Z,22.79
2023-05-12T11:15:46.802Z,22.84
2023-05-12T11:18:20.999Z,22.56
2023-05-12T11:20:50.056Z,22.66
2023-05-12T11:23:29.186Z,22.06
2023-05-12T11:25:57.382Z,22.03
2023-05-12T11:28:25.691Z,22.10
2023-05-12T11:30:55.308Z,22.10
2023-05-12T11:33:23.888Z,21.94
2023-05-12T11:35:51.962Z,22.44
2023-05-12T11:38:20.039Z,22.86
2023-05-12T11:40:48.008Z,23.33
2023-05-12T11:43:19.856Z,23.15
2023-05-12T11:45:47.939Z,23.30
2023-05-12T11:48:16.657Z,23.54
2023-05-12T11:50:48.079Z,22.88
2023-05-12T11:53:19.225Z,22.49
2023-05-12T11:55:54.186Z,22.33
2023-05-12T11:58:30.869Z,22.60
2023-05-12T12:01:12.423Z,22.42
2023-05-12T12:03:57.509Z,22.36
2023-05-12T12:06:25.823Z,23.01
2023-05-12T12:09:00.082Z,23.22
2023-05-12T12:11:29.085Z,23.62
2023-05-12T12:13:57.440Z,23.55
2023-05-12T12:16:29.902Z,23.34
2023-05-12T12:18:58.188Z,23.31
2023-05-12T12:21:26.352Z,24.04
2023-05-12T12:23:54.356Z,24.31
2023-05-12T12:26:23.110Z,24.34
2023-05-12T12:28:51.120Z,24.35
2023-05-12T12:31:19.144Z,23.95
2023-05-12T12:33:47.147Z,24.07
2023-05-12T12:36:15.238Z,24.55
2023-05-12T12:38:43.320Z,24.68
2023-05-12T12:41:11.639Z,24.74
2023-05-12T12:43:39.806Z,24.51
2023-05-12T12:46:07.756Z,24.10
2023-05-12T12:48:35.751Z,23.80
2023-05-12T12:51:04.312Z,23.98
2023-05-12T12:53:32.349Z,23.73
2023-05-12T12:56:00.350Z,23.68
2023-05-12T12:58:28.433Z,22.92
2023-05-12T13:00:56.909Z,22.68
2023-05-12T13:03:25.094Z,22.95
2023-05-12T13:05:54.206Z,22.38
2023-05-12T13:08:22.468Z,22.60
2023-05-12T13:10:50.555Z,22.13
2023-05-12T13:13:18.570Z,22.77
2023-05-12T13:15:46.495Z,23.60
2023-05-12T13:18:14.462Z,22.89
2023-05-12T13:20:42.468Z,23.00
2023-05-12T13:23:10.454Z,23.21
2023-05-12T13:25:38.414Z,22.87
2023-05-12T13:28:06.438Z,22.62
2023-05-12T13:30:35.298Z,22.18
2023-05-12T13:33:05.885Z,21.88
2023-05-12T13:35:34.517Z,21.81
2023-05-12T13:38:02.521Z,20.95
2023-05-12T13:40:30.585Z,21.56
2023-05-12T13:42:58.677Z,21.62
2023-05-12T13:45:27.491Z,21.02
2023-05-12T13:47:55.520Z,21.22
2023-05-12T13:50:23.537Z,21.25
2023-05-12T13:52:51.418Z,21.25
2023-05-12T13:55:21.745Z,21.74
2023-05-12T13:57:50.159Z,21.76
2023-05-12T14:00:18.469Z,22.07
2023-05-12T14:02:46.472Z,21.63
2023-05-12T14:05:14.883Z,21.86
2023-05-12T14:07:42.859Z,21.62
2023-05-12T14:10:11.122Z,21.37
2023-05-12T14:12:39.156Z,21.30
2023-05-12T14:15:23.622Z,21.40
2023-05-12T14:17:56.055Z,21.38
2023-05-12T14:20:24.093Z,21.53
2023-05-12T14:22:52.519Z,20.97
2023-05-12T14:25:20.738Z,20.96
2023-05-12T14:27:48.914Z,21.36
2023-05-12T14:30:17.011Z,21.33
2023-05-12T14:32:45.167Z,21.23
2023-05-12T14:35:13.475Z,21.10
2023-05-12T14:37:41.498Z,20.72
2023-05-12T14:40:10.161Z,20.33
2023-05-12T14:42:38.328Z,20.56
2023-05-12T14:45:06.846Z,20.15
2023-05-12T14:47:35.063Z,20.40
2023-05-12T14:50:03.170Z,20.11
2023-05-12T14:52:34.054Z,20.44
2023-05-12T14:55:04.874Z,20.62
2023-05-12T14:57:35.888Z,20.22
2023-05-12T15:00:08.160Z,20.34
2023-05-12T15:02:36.410Z,20.15
2023-05-12T15:05:05.693Z,20.63
2023-05-12T15:07:33.859Z,20.64
2023-05-12T15:10:01.849Z,20.14
2023-05-12T15:12:29.975Z,20.44
2023-05-12T15:15:01.296Z,20.82
2023-05-12T15:17:30.831Z,20.67
2023-05-12T15:19:59.090Z,20.75
2023-05-12T15:22:31.532Z,20.65
2023-05-12T15:24:59.852Z,20.42
2023-05-12T15:27:27.830Z,20.37
2023-05-12T15:29:55.907Z,20.55
2023-05-12T15:32:23.963Z,20.38
2023-05-12T15:34:52.496Z,20.74
2023-05-12T15:37:20.771Z,21.07
2023-05-12T15:39:48.841Z,21.05
2023-05-12T15:42:22.465Z,21.08
2023-05-12T15:44:54.687Z,21.04
2023-05-12T15:47:23.010Z,21.02
2023-05-12T15:49:51.348Z,20.84
2023-05-12T15:52:19.512Z,21.15
2023-05-12T15:54:47.725Z,21.33
2023-05-12T15:57:15.818Z,21.22
2023-05-12T15:59:43.918Z,21.52
2023-05-12T16:02:12.157Z,21.73
2023-05-12T16:04:40.439Z,21.57
2023-05-12T16:07:08.642Z,21.59
2023-05-12T16:09:36.748Z,21.60
2023-05-12T16:12:06.280Z,21.49
2023-05-12T16:14:35.483Z,21.28
2023-05-12T16:17:03.946Z,21.70
2023-05-12T16:19:32.202Z,21.67
2023-05-12T16:22:00.555Z,21.72
2023-05-12T16:24:29.004Z,21.91
2023-05-12T16:26:57.531Z,21.65
2023-05-12T16:29:25.960Z,21.58
2023-05-12T16:31:53.952Z,21.81
2023-05-12T16:34:22.013Z,22.17
2023-05-12T16:36:50.022Z,22.22
2023-05-12T16:39:20.670Z,22.59
2023-05-12T16:41:49.001Z,22.80
2023-05-12T16:44:16.965Z,22.78
2023-05-12T16:46:45.059Z,22.90
2023-05-12T16:49:13.399Z,23.22
2023-05-12T16:51:42.094Z,23.42
2023-05-12T16:54:10.275Z,23.42
2023-05-12T16:56:38.351Z,23.26
2023-05-12T16:59:06.573Z,23.22
2023-05-12T17:01:36.177Z,23.61
2023-05-12T17:04:04.570Z,24.08
2023-05-12T17:06:32.758Z,24.50
2023-05-12T17:09:01.663Z,24.86
2023-05-12T17:11:29.740Z,25.06
2023-05-12T17:13:57.810Z,25.21
2023-05-12T17:16:25.856Z,25.67
2023-05-12T17:21:25.042Z,25.99
2023-05-12T17:23:54.045Z,26.09
2023-05-12T17:26:22.748Z,26.60
2023-05-12T17:28:50.863Z,26.26
2023-05-12T17:31:21.154Z,26.59
2023-05-12T17:33:49.485Z,26.63
2023-05-12T17:36:18.961Z,27.04
2023-05-12T17:38:48.336Z,26.89
2023-05-12T17:41:16.586Z,27.09
2023-05-12T17:43:44.608Z,27.14
2023-05-12T17:46:12.741Z,27.31
2023-05-12T17:48:42.074Z,27.59
2023-05-12T17:51:10.204Z,27.71
2023-05-12T17:53:38.195Z,27.90
2023-05-12T17:56:06.285Z,27.76
2023-05-12T17:58:34.253Z,27.88
2023-05-12T18:01:02.226Z,27.95
2023-05-12T18:03:30.439Z,28.03
2023-05-12T18:05:58.437Z,28.26
2023-05-12T18:08:27.352Z,28.29
2023-05-12T18:10:55.699Z,28.60
2023-05-12T18:13:23.702Z,28.99
2023-05-12T18:15:51.685Z,28.83
2023-05-12T18:18:19.681Z,29.24
2023-05-12T18:20:48.100Z,29.22
2023-05-12T18:23:16.824Z,29.02
2023-05-12T18:25:44.822Z,28.89
2023-05-12T18:28:12.791Z,29.20
2023-05-12T18:30:41.710Z,29.38
2023-05-12T18:33:10.211Z,29.41
2023-05-12T18:35:38.309Z,29.90
2023-05-12T18:38:07.303Z,30.17
2023-05-12T18:40:35.314Z,31.02
2023-05-12T18:43:03.279Z,31.53
2023-05-12T18:45:31.247Z,31.72
2023-05-12T18:47:59.248Z,32.78
2023-05-12T18:50:27.302Z,32.68
2023-05-12T18:52:55.348Z,32.73
2023-05-12T18:55:23.418Z,32.14
2023-05-12T18:57:51.612Z,33.21
2023-05-12T19:00:23.628Z,34.08
2023-05-12T19:02:52.729Z,34.35
2023-05-12T19:05:21.390Z,34.61
2023-05-12T19:07:49.602Z,34.99
2023-05-12T19:10:17.606Z,34.82
2023-05-12T19:12:45.664Z,35.53
2023-05-12T19:15:14.823Z,35.03
2023-05-12T19:17:42.954Z,36.36
2023-05-12T19:20:11.221Z,36.77
2023-05-12T19:22:39.186Z,37.41
2023-05-12T19:25:07.294Z,37.80
2023-05-12T19:27:35.281Z,37.69
2023-05-12T19:30:05.371Z,38.43
2023-05-12T19:32:33.817Z,38.99
2023-05-12T19:35:05.012Z,38.94
2023-05-12T19:37:36.351Z,38.40
2023-05-12T19:40:04.744Z,38.70
2023-05-12T19:42:32.904Z,38.65
2023-05-12T19:45:01.226Z,38.70
2023-05-12T19:47:30.384Z,37.91
2023-05-12T19:49:58.389Z,39.03
2023-05-12T19:52:26.610Z,41.46
2023-05-12T19:54:54.795Z,40.97
2023-05-12T19:57:23.252Z,41.40
2023-05-12T19:59:51.237Z,40.33
2023-05-12T20:02:19.192Z,40.11
2023-05-12T20:04:47.196Z,42.42
2023-05-12T20:07:15.145Z,40.77
2023-05-12T20:09:43.231Z,40.98
2023-05-12T20:12:11.407Z,42.72
2023-05-12T20:14:39.361Z,42.95
2023-05-12T20:17:08.192Z,43.39
2023-05-12T20:19:36.170Z,44.78
2023-05-12T20:22:04.166Z,42.73
2023-05-12T20:24:32.210Z,43.25
2023-05-12T20:27:00.300Z,45.35
2023-05-12T20:29:30.220Z,46.27
2023-05-12T20:31:58.512Z,46.24
2023-05-12T20:34:26.492Z,48.16
2023-05-12T20:36:54.627Z,48.10
2023-05-12T20:39:22.978Z,48.00
2023-05-12T20:41:51.010Z,44.50
2023-05-12T20:44:20.178Z,47.78
2023-05-12T20:46:48.299Z,47.05
2023-05-12T20:49:16.507Z,47.25
2023-05-12T20:51:44.427Z,44.42
2023-05-12T20:54:12.367Z,46.61
2023-05-12T20:56:40.391Z,49.67
2023-05-12T20:59:08.394Z,48.67
2023-05-12T21:01:36.428Z,47.41
2023-05-12T21:04:04.598Z,47.68
2023-05-12T21:06:34.014Z,47.88
2023-05-12T21:09:02.468Z,46.72
2023-05-12T21:11:30.792Z,52.22
2023-05-12T21:13:58.873Z,48.01
2023-05-12T21:16:26.909Z,47.32
2023-05-12T21:18:54.979Z,52.95
2023-05-12T21:21:22.934Z,50.44
2023-05-12T21:23:51.309Z,53.05
2023-05-12T21:26:19.207Z,52.49
2023-05-12T21:28:47.187Z,52.19
2023-05-12T21:31:15.260Z,52.37
2023-05-12T21:33:43.182Z,51.35
2023-05-12T21:36:11.139Z,52.96
2023-05-12T21:38:39.016Z,53.29
2023-05-12T21:41:07.059Z,53.40
2023-05-12T21:43:34.937Z,53.34
2023-05-12T21:46:04.217Z,53.26
2023-05-12T21:48:33.455Z,53.42
2023-05-12T21:51:02.577Z,53.24
2023-05-12T21:53:30.670Z,53.52
2023-05-12T21:55:58.708Z,52.78
2023-05-12T21:58:26.709Z,55.11
2023-05-12T22:00:54.811Z,53.99
2023-05-12T22:03:25.209Z,54.60
2023-05-12T22:05:53.318Z,53.27
2023-05-12T22:08:21.379Z,54.57
2023-05-12T22:10:49.382Z,54.84
2023-05-12T22:13:17.281Z,53.06
2023-05-12T22:15:45.478Z,54.09
2023-05-12T22:18:13.463Z,54.45
2023-05-12T22:20:41.579Z,54.33
2023-05-12T22:23:09.484Z,54.13
2023-05-12T22:25:38.290Z,55.62
2023-05-12T22:28:07.332Z,58.63
2023-05-12T22:30:35.506Z,54.80
2023-05-12T22:33:03.521Z,57.57
2023-05-12T22:35:31.603Z,59.08
2023-05-12T22:37:59.542Z,54.64
2023-05-12T22:40:27.939Z,59.78
2023-05-12T22:42:55.896Z,59.03
2023-05-12T22:45:25.316Z,55.80
2023-05-12T22:47:53.290Z,55.44
2023-05-12T22:50:21.641Z,57.68
2023-05-12T22:52:49.870Z,60.27
2023-05-12T22:55:17.772Z,59.51
2023-05-12T22:57:46.175Z,58.65
2023-05-12T23:00:14.554Z,61.93
2023-05-12T23:02:42.562Z,63.83
2023-05-12T23:05:10.618Z,59.76
2023-05-12T23:07:38.933Z,60.41
2023-05-12T23:10:07.393Z,61.65
2023-05-12T23:12:35.367Z,58.55
2023-05-12T23:15:04.762Z,61.24
2023-05-12T23:17:32.762Z,61.51
2023-05-12T23:20:00.829Z,62.08
2023-05-12T23:22:28.803Z,62.06
2023-05-12T23:24:58.410Z,62.30
2023-05-12T23:27:26.947Z,61.95
2023-05-12T23:29:54.921Z,62.18
2023-05-12T23:32:22.930Z,60.64
2023-05-12T23:34:51.723Z,62.45
2023-05-12T23:37:19.735Z,63.02
2023-05-12T23:39:47.704Z,61.43
2023-05-12T23:42:17.305Z,60.41
2023-05-12T23:44:45.309Z,62.74
2023-05-12T23:47:13.216Z,61.25
2023-05-12T23:49:41.169Z,62.91
2023-05-12T23:52:09.106Z,63.51
2023-05-12T23:54:37.019Z,62.81
2023-05-12T23:57:05.123Z,61.83
2023-05-12T23:59:33.050Z,60.89
